createdAt,value
2023-04-09T00:01:07.804Z,9.40
2023-04-09T00:03:36.952Z,10.15
2023-04-09T00:06:06.165Z,9.45
2023-04-09T00:08:36.337Z,8.70
2023-04-09T00:11:05.368Z,9.07
2023-04-09T00:13:39.056Z,10.07
2023-04-09T00:16:08.385Z,10.27
2023-04-09T00:18:36.903Z,11.18
2023-04-09T00:21:07.260Z,10.65
2023-04-09T00:23:37.229Z,10.57
2023-04-09T00:26:06.155Z,9.85
2023-04-09T00:28:34.617Z,10.48
2023-04-09T00:31:03.388Z,9.07
2023-04-09T00:33:32.006Z,11.25
2023-04-09T00:36:00.545Z,10.43
2023-04-09T00:38:29.088Z,10.50
2023-04-09T00:40:59.077Z,10.05
2023-04-09T00:43:29.844Z,9.70
2023-04-09T00:45:58.732Z,10.10
2023-04-09T00:48:27.270Z,10.50
2023-04-09T00:50:56.009Z,10.18
2023-04-09T00:53:24.496Z,9.70
2023-04-09T00:55:54.867Z,9.85
2023-04-09T00:58:26.355Z,10.25
2023-04-09T01:00:55.987Z,9.73
2023-04-09T01:03:25.312Z,10.40
2023-04-09T01:06:09.998Z,10.85
2023-04-09T01:08:45.911Z,10.60
2023-04-09T01:11:21.774Z,10.05
2023-04-09T01:14:00.773Z,11.02
2023-04-09T01:16:31.147Z,10.27
2023-04-09T01:19:02.925Z,10.43
2023-04-09T01:21:34.023Z,10.77
2023-04-09T01:24:14.654Z,10.90
2023-04-09T01:26:59.045Z,11.48
2023-04-09T01:29:37.440Z,11.35
2023-04-09T01:32:09.907Z,12.07
2023-04-09T01:34:39.176Z,11.45
2023-04-09T01:37:09.247Z,10.68
2023-04-09T01:39:38.736Z,11.02
2023-04-09T01:42:11.163Z,11.45
2023-04-09T01:44:42.058Z,11.02
2023-04-09T01:47:11.290Z,9.88
2023-04-09T01:49:41.937Z,10.40
2023-04-09T01:52:11.530Z,10.35
2023-04-09T01:54:41.202Z,10.60
2023-04-09T01:57:09.860Z,10.25
2023-04-09T01:59:38.241Z,9.98
2023-04-09T02:02:12.197Z,10.35
2023-04-09T02:04:44.317Z,9.90
2023-04-09T02:07:19.825Z,9.45
2023-04-09T02:09:49.657Z,10.38
2023-04-09T02:12:20.186Z,9.93
2023-04-09T02:14:50.329Z,9.43
2023-04-09T02:17:20.661Z,9.90
2023-04-09T02:19:49.514Z,9.88
2023-04-09T02:22:18.753Z,10.30
2023-04-09T02:24:47.890Z,10.35
2023-04-09T02:27:16.667Z,10.18
2023-04-09T02:29:45.416Z,10.30
2023-04-09T02:32:14.546Z,11.80
2023-04-09T02:34:44.348Z,10.43
2023-04-09T02:37:13.126Z,10.30
2023-04-09T02:39:41.684Z,9.85
2023-04-09T02:42:10.137Z,10.50
2023-04-09T02:44:38.770Z,10.43
2023-04-09T02:47:11.887Z,10.07
2023-04-09T02:49:44.078Z,10.25
2023-04-09T02:52:14.776Z,10.60
2023-04-09T02:54:43.355Z,10.07
2023-04-09T02:57:11.927Z,9.82
2023-04-09T02:59:40.794Z,10.07
2023-04-09T03:02:09.425Z,10.48
2023-04-09T03:04:38.238Z,10.73
2023-04-09T03:07:06.808Z,9.70
2023-04-09T03:09:36.631Z,10.88
2023-04-09T03:12:05.436Z,10.30
2023-04-09T03:14:36.240Z,10.85
2023-04-09T03:17:04.940Z,10.75
2023-04-09T03:19:35.304Z,10.52
2023-04-09T03:22:04.179Z,11.05
2023-04-09T03:24:33.415Z,10.25
2023-04-09T03:27:06.704Z,10.50
2023-04-09T03:29:35.754Z,11.13
2023-04-09T03:32:04.167Z,10.43
2023-04-09T03:34:33.310Z,10.77
2023-04-09T03:37:02.049Z,10.60
2023-04-09T03:39:33.514Z,10.95
2023-04-09T03:42:02.279Z,10.65
2023-04-09T03:44:38.533Z,10.60
2023-04-09T03:47:10.891Z,11.20
2023-04-09T03:49:43.376Z,10.98
2023-04-09T03:55:06.029Z,10.35
2023-04-09T03:57:36.762Z,11.55
2023-04-09T04:00:10.567Z,11.50
2023-04-09T04:02:57.988Z,11.90
2023-04-09T04:05:47.909Z,11.88
2023-04-09T04:08:18.594Z,11.15
2023-04-09T04:10:48.269Z,11.05
2023-04-09T04:13:18.626Z,11.60
2023-04-09T04:15:54.153Z,11.52
2023-04-09T04:18:24.954Z,10.60
2023-04-09T04:20:55.744Z,11.73
2023-04-09T04:23:24.225Z,11.75
2023-04-09T04:26:07.021Z,10.95
2023-04-09T04:28:38.206Z,10.98
2023-04-09T04:31:15.799Z,11.68
2023-04-09T04:33:45.145Z,11.90
2023-04-09T04:36:16.410Z,12.02
2023-04-09T04:38:53.344Z,11.15
2023-04-09T04:41:45.256Z,12.40
2023-04-09T04:44:18.877Z,11.32
2023-04-09T04:46:50.678Z,11.50
2023-04-09T04:49:22.246Z,10.90
2023-04-09T04:51:52.750Z,10.68
2023-04-09T04:54:21.178Z,12.55
2023-04-09T04:56:56.328Z,11.80
2023-04-09T04:59:38.728Z,10.77
2023-04-09T05:02:12.107Z,11.82
2023-04-09T05:05:07.505Z,10.85
2023-04-09T05:10:13.558Z,11.02
2023-04-09T05:15:14.768Z,11.02
2023-04-09T05:17:45.590Z,11.43
2023-04-09T05:20:15.805Z,10.80
2023-04-09T05:22:54.035Z,11.45
2023-04-09T05:25:29.399Z,12.10
2023-04-09T05:27:58.436Z,10.73
2023-04-09T05:30:29.947Z,11.52
2023-04-09T05:33:03.317Z,13.13
2023-04-09T05:35:33.054Z,11.55
2023-04-09T05:38:02.896Z,11.45
2023-04-09T05:40:32.600Z,12.27
2023-04-09T05:43:03.002Z,10.82
2023-04-09T05:45:42.271Z,11.98
2023-04-09T05:48:15.121Z,11.65
2023-04-09T05:50:54.022Z,12.48
2023-04-09T05:53:26.152Z,11.30
2023-04-09T05:55:57.052Z,11.68
2023-04-09T05:58:30.204Z,12.60
2023-04-09T06:00:59.741Z,11.93
2023-04-09T06:03:29.687Z,12.70
2023-04-09T06:05:58.654Z,12.27
2023-04-09T06:08:27.148Z,13.18
2023-04-09T06:10:55.733Z,12.23
2023-04-09T06:13:24.536Z,12.25
2023-04-09T06:15:53.088Z,12.50
2023-04-09T06:18:22.160Z,11.93
2023-04-09T06:20:53.548Z,13.82
2023-04-09T06:23:22.050Z,12.23
2023-04-09T06:25:53.419Z,11.65
2023-04-09T06:28:23.362Z,12.95
2023-04-09T06:30:53.615Z,12.70
2023-04-09T06:33:22.449Z,12.88
2023-04-09T06:35:52.368Z,12.43
2023-04-09T06:38:21.046Z,13.98
2023-04-09T06:40:49.532Z,12.05
2023-04-09T06:43:18.328Z,12.02
2023-04-09T06:45:56.205Z,12.10
2023-04-09T06:48:24.847Z,12.98
2023-04-09T06:50:54.903Z,12.60
2023-04-09T06:53:23.810Z,13.18
2023-04-09T06:55:52.813Z,13.45
2023-04-09T06:58:22.336Z,12.50
2023-04-09T07:00:51.844Z,12.88
2023-04-09T07:03:20.673Z,12.48
2023-04-09T07:05:49.869Z,13.55
2023-04-09T07:08:20.127Z,12.70
2023-04-09T07:10:48.700Z,13.15
2023-04-09T07:13:17.460Z,12.80
2023-04-09T07:15:46.047Z,13.63
2023-04-09T07:18:17.376Z,12.13
2023-04-09T07:20:46.222Z,13.05
2023-04-09T07:23:14.647Z,12.18
2023-04-09T07:25:46.032Z,13.05
2023-04-09T07:28:20.892Z,11.82
2023-04-09T07:30:49.407Z,12.15
2023-04-09T07:33:17.914Z,11.50
2023-04-09T07:35:47.070Z,11.10
2023-04-09T07:38:16.432Z,12.52
2023-04-09T07:40:47.419Z,10.90
2023-04-09T07:43:15.949Z,11.95
2023-04-09T07:45:47.655Z,10.77
2023-04-09T07:48:16.398Z,11.23
2023-04-09T07:50:48.347Z,12.02
2023-04-09T07:53:17.210Z,10.88
2023-04-09T07:55:47.036Z,11.60
2023-04-09T07:58:17.076Z,11.05
2023-04-09T08:00:46.182Z,11.57
2023-04-09T08:03:15.221Z,12.35
2023-04-09T08:05:43.983Z,12.07
2023-04-09T08:08:14.432Z,11.95
2023-04-09T08:10:43.073Z,11.95
2023-04-09T08:13:18.046Z,11.77
2023-04-09T08:15:47.753Z,11.30
2023-04-09T08:18:19.524Z,10.18
2023-04-09T08:20:49.822Z,10.00
2023-04-09T08:23:18.321Z,9.80
2023-04-09T08:25:46.776Z,9.85
2023-04-09T08:28:21.900Z,9.00
2023-04-09T08:30:50.649Z,9.27
2023-04-09T08:33:23.117Z,8.43
2023-04-09T08:35:52.098Z,8.25
2023-04-09T08:38:21.911Z,8.63
2023-04-09T08:40:50.430Z,8.30
2023-04-09T08:43:20.817Z,7.43
2023-04-09T08:45:49.414Z,7.07
2023-04-09T08:48:18.625Z,7.10
2023-04-09T08:50:47.797Z,7.93
2023-04-09T08:53:17.361Z,7.78
2023-04-09T08:55:50.879Z,8.52
2023-04-09T08:58:20.688Z,8.95
2023-04-09T09:00:49.447Z,8.07
2023-04-09T09:03:18.613Z,9.00
2023-04-09T09:05:49.759Z,8.90
2023-04-09T09:08:24.944Z,9.20
2023-04-09T09:10:53.936Z,9.20
2023-04-09T09:13:25.964Z,9.70
2023-04-09T09:15:56.530Z,10.05
2023-04-09T09:18:40.808Z,10.50
2023-04-09T09:21:13.711Z,10.02
2023-04-09T09:23:50.669Z,9.43
2023-04-09T09:26:21.826Z,9.18
2023-04-09T09:28:52.254Z,10.02
2023-04-09T09:31:22.488Z,10.13
2023-04-09T09:33:51.250Z,9.57
2023-04-09T09:36:40.118Z,9.60
2023-04-09T09:39:10.496Z,9.27
2023-04-09T09:41:39.696Z,8.60
2023-04-09T09:44:14.068Z,9.25
2023-04-09T09:46:43.547Z,9.60
2023-04-09T09:49:14.326Z,8.68
2023-04-09T09:51:43.339Z,10.10
2023-04-09T09:54:13.124Z,8.88
2023-04-09T09:56:43.574Z,8.65
2023-04-09T09:59:18.421Z,8.80
2023-04-09T10:01:47.962Z,8.65
2023-04-09T10:04:19.939Z,8.68
2023-04-09T10:06:51.049Z,8.95
2023-04-09T10:09:23.032Z,8.70
2023-04-09T10:11:51.766Z,9.45
2023-04-09T10:14:22.684Z,8.65
2023-04-09T10:16:51.686Z,8.60
2023-04-09T10:19:20.260Z,7.93
2023-04-09T10:21:53.934Z,8.18
2023-04-09T10:24:23.376Z,8.65
2023-04-09T10:26:56.261Z,8.13
2023-04-09T10:29:30.324Z,7.65
2023-04-09T10:32:06.470Z,7.25
2023-04-09T10:34:42.253Z,9.13
2023-04-09T10:37:18.287Z,6.95
2023-04-09T10:39:48.562Z,7.43
2023-04-09T10:42:20.659Z,7.53
2023-04-09T10:45:06.306Z,7.85
2023-04-09T10:47:37.503Z,9.68
2023-04-09T10:50:19.816Z,7.40
2023-04-09T10:52:55.233Z,7.47
2023-04-09T10:55:38.408Z,7.47
2023-04-09T10:58:09.742Z,7.15
2023-04-09T11:00:42.589Z,7.57
2023-04-09T11:03:24.600Z,7.05
2023-04-09T11:06:00.090Z,8.00
2023-04-09T11:08:33.156Z,7.95
2023-04-09T11:11:02.478Z,8.52
2023-04-09T11:13:32.056Z,7.93
2023-04-09T11:16:04.361Z,8.82
2023-04-09T11:18:34.931Z,8.00
2023-04-09T11:21:04.677Z,8.38
2023-04-09T11:23:33.791Z,9.02
2023-04-09T11:26:03.180Z,7.43
2023-04-09T11:28:32.035Z,7.20
2023-04-09T11:31:05.973Z,7.75
2023-04-09T11:33:35.055Z,8.38
2023-04-09T11:36:06.199Z,7.85
2023-04-09T11:38:34.949Z,7.32
2023-04-09T11:41:03.568Z,7.97
2023-04-09T11:43:32.271Z,7.75
2023-04-09T11:48:47.616Z,7.57
2023-04-09T11:51:16.425Z,7.47
2023-04-09T11:53:44.740Z,7.20
2023-04-09T11:56:15.780Z,6.90
2023-04-09T11:58:47.230Z,8.15
2023-04-09T12:01:17.700Z,7.68
2023-04-09T12:03:46.533Z,8.60
2023-04-09T12:06:15.177Z,7.68
2023-04-09T12:08:43.666Z,6.63
2023-04-09T12:11:17.842Z,7.70
2023-04-09T12:13:47.928Z,7.68
2023-04-09T12:16:21.321Z,8.32
2023-04-09T12:18:51.191Z,7.68
2023-04-09T12:21:19.645Z,7.15
2023-04-09T12:23:48.200Z,6.25
2023-04-09T12:26:16.807Z,7.15
2023-04-09T12:28:47.084Z,7.70
2023-04-09T12:31:15.668Z,8.40
2023-04-09T12:33:50.335Z,7.53
2023-04-09T12:36:18.973Z,7.00
2023-04-09T12:38:49.102Z,7.50
2023-04-09T12:41:17.948Z,8.05
2023-04-09T12:43:47.335Z,7.03
2023-04-09T12:46:16.023Z,7.55
2023-04-09T12:48:46.158Z,8.30
2023-04-09T12:51:20.928Z,9.45
2023-04-09T12:53:49.470Z,7.75
2023-04-09T12:56:17.848Z,8.77
2023-04-09T12:58:46.576Z,7.47
2023-04-09T13:01:15.249Z,7.50
2023-04-09T13:03:47.437Z,7.82
2023-04-09T13:06:16.240Z,7.53
2023-04-09T13:08:44.803Z,8.13
2023-04-09T13:11:16.411Z,8.10
2023-04-09T13:13:44.877Z,8.25
2023-04-09T13:16:16.444Z,8.38
2023-04-09T13:18:44.933Z,8.85
2023-04-09T13:21:18.911Z,7.53
2023-04-09T13:23:47.727Z,7.78
2023-04-09T13:26:19.398Z,6.47
2023-04-09T13:28:48.129Z,7.70
2023-04-09T13:31:16.810Z,7.53
2023-04-09T13:33:47.303Z,6.88
2023-04-09T13:36:20.462Z,7.25
2023-04-09T13:38:49.405Z,7.15
2023-04-09T13:41:19.154Z,7.97
2023-04-09T13:43:47.685Z,7.47
2023-04-09T13:46:16.092Z,7.35
2023-04-09T13:48:45.017Z,7.25
2023-04-09T13:51:13.592Z,7.07
2023-04-09T13:53:45.970Z,7.57
2023-04-09T13:56:17.609Z,7.13
2023-04-09T13:58:46.909Z,8.32
2023-04-09T14:01:16.091Z,7.60
2023-04-09T14:03:45.124Z,8.23
2023-04-09T14:06:13.695Z,7.13
2023-04-09T14:08:44.375Z,8.85
2023-04-09T14:11:15.964Z,8.05
2023-04-09T14:13:48.663Z,7.18
2023-04-09T14:16:17.381Z,8.20
2023-04-09T14:18:45.920Z,7.38
2023-04-09T14:21:18.446Z,7.60
2023-04-09T14:23:47.095Z,8.20
2023-04-09T14:26:22.124Z,8.00
2023-04-09T14:28:53.206Z,8.07
2023-04-09T14:31:22.117Z,7.63
2023-04-09T14:33:50.858Z,7.88
2023-04-09T14:36:21.310Z,7.10
2023-04-09T14:38:51.358Z,7.07
2023-04-09T14:41:21.974Z,7.55
2023-04-09T14:43:50.902Z,7.90
2023-04-09T14:46:20.422Z,7.80
2023-04-09T14:48:49.186Z,7.47
2023-04-09T14:51:17.904Z,7.70
2023-04-09T14:53:46.874Z,8.05
2023-04-09T14:56:17.382Z,7.50
2023-04-09T14:58:47.832Z,8.32
2023-04-09T15:01:16.256Z,7.63
2023-04-09T15:03:45.200Z,7.53
2023-04-09T15:06:13.852Z,7.38
2023-04-09T15:08:42.488Z,7.57
2023-04-09T15:11:16.464Z,8.20
2023-04-09T15:13:44.944Z,8.00
2023-04-09T15:16:24.492Z,8.20
2023-04-09T15:18:55.857Z,8.30
2023-04-09T15:21:25.036Z,7.70
2023-04-09T15:23:54.039Z,8.40
2023-04-09T15:26:23.038Z,8.20
2023-04-09T15:28:54.779Z,8.45
2023-04-09T15:31:24.983Z,7.70
2023-04-09T15:33:56.719Z,7.68
2023-04-09T15:36:26.329Z,7.70
2023-04-09T15:38:56.144Z,8.35
2023-04-09T15:41:27.064Z,7.57
2023-04-09T15:43:56.792Z,7.53
2023-04-09T15:46:27.014Z,7.10
2023-04-09T15:48:55.692Z,8.38
2023-04-09T15:51:24.181Z,7.70
2023-04-09T15:53:53.183Z,8.05
2023-04-09T15:56:23.705Z,8.43
2023-04-09T15:58:52.604Z,7.35
2023-04-09T16:01:21.350Z,9.10
2023-04-09T16:03:52.454Z,8.10
2023-04-09T16:06:21.341Z,9.00
2023-04-09T16:08:49.788Z,8.50
2023-04-09T16:11:18.596Z,8.30
2023-04-09T16:13:49.890Z,8.15
2023-04-09T16:16:18.486Z,8.23
2023-04-09T16:18:48.822Z,8.93
2023-04-09T16:21:21.612Z,8.30
2023-04-09T16:23:52.182Z,8.93
2023-04-09T16:26:20.835Z,10.70
2023-04-09T16:28:50.052Z,9.25
2023-04-09T16:31:18.767Z,9.15
2023-04-09T16:33:47.636Z,8.77
2023-04-09T16:36:16.366Z,8.07
2023-04-09T16:38:46.279Z,8.98
2023-04-09T16:41:14.981Z,9.10
2023-04-09T16:43:46.049Z,9.23
2023-04-09T16:46:14.749Z,9.63
2023-04-09T16:48:43.241Z,10.27
2023-04-09T16:51:11.793Z,11.15
2023-04-09T16:53:40.369Z,9.48
2023-04-09T16:56:10.925Z,10.75
2023-04-09T16:58:39.548Z,11.07
2023-04-09T17:01:08.151Z,10.77
2023-04-09T17:03:36.649Z,10.07
2023-04-09T17:06:06.169Z,10.63
2023-04-09T17:08:35.575Z,11.77
2023-04-09T17:11:04.275Z,10.00
2023-04-09T17:13:35.924Z,10.68
2023-04-09T17:16:04.974Z,9.80
2023-04-09T17:18:36.661Z,11.00
2023-04-09T17:21:05.996Z,10.57
2023-04-09T17:23:34.563Z,10.48
2023-04-09T17:26:03.451Z,9.77
2023-04-09T17:28:35.840Z,10.57
2023-04-09T17:31:04.682Z,11.13
2023-04-09T17:33:33.185Z,9.85
2023-04-09T17:36:02.037Z,12.20
2023-04-09T17:38:31.887Z,10.20
2023-04-09T17:41:00.434Z,9.65
2023-04-09T17:43:29.234Z,10.93
2023-04-09T17:46:01.794Z,9.55
2023-04-09T17:48:32.100Z,10.15
2023-04-09T17:51:00.716Z,11.25
2023-04-09T17:53:29.267Z,11.05
2023-04-09T17:55:58.186Z,11.80
2023-04-09T17:58:27.139Z,10.90
2023-04-09T18:00:55.840Z,10.20
2023-04-09T18:03:26.101Z,10.55
2023-04-09T18:05:54.924Z,10.27
2023-04-09T18:08:23.566Z,9.65
2023-04-09T18:11:11.305Z,10.05
2023-04-09T18:13:40.419Z,9.57
2023-04-09T18:16:10.699Z,10.50
2023-04-09T18:18:41.406Z,9.80
2023-04-09T18:21:10.194Z,8.98
2023-04-09T18:23:40.440Z,10.02
2023-04-09T18:26:09.096Z,10.20
2023-04-09T18:28:37.582Z,10.32
2023-04-09T18:31:06.786Z,10.65
2023-04-09T18:33:35.749Z,11.77
2023-04-09T18:36:06.495Z,11.02
2023-04-09T18:38:35.182Z,10.52
2023-04-09T18:41:08.285Z,10.68
2023-04-09T18:43:37.165Z,10.85
2023-04-09T18:46:06.140Z,10.40
2023-04-09T18:48:34.630Z,11.18
2023-04-09T18:51:03.485Z,11.57
2023-04-09T18:53:33.726Z,10.98
2023-04-09T18:56:02.326Z,12.68
2023-04-09T18:58:31.600Z,11.57
2023-04-09T19:01:01.165Z,11.02
2023-04-09T19:03:30.918Z,11.10
2023-04-09T19:06:00.382Z,11.70
2023-04-09T19:08:32.408Z,11.60
2023-04-09T19:11:05.736Z,11.13
2023-04-09T19:13:34.411Z,12.20
2023-04-09T19:16:02.898Z,11.98
2023-04-09T19:18:33.792Z,12.57
2023-04-09T19:21:06.585Z,12.13
2023-04-09T19:23:35.660Z,12.63
2023-04-09T19:26:08.443Z,12.25
2023-04-09T19:28:37.869Z,12.57
2023-04-09T19:31:07.749Z,12.60
2023-04-09T19:33:36.364Z,12.73
2023-04-09T19:36:06.718Z,12.40
2023-04-09T19:38:38.086Z,11.77
2023-04-09T19:41:13.952Z,12.82
2023-04-09T19:43:45.295Z,13.02
2023-04-09T19:46:16.718Z,13.95
2023-04-09T19:48:49.397Z,14.00
2023-04-09T19:51:22.942Z,14.75
2023-04-09T19:53:56.634Z,15.10
2023-04-09T19:56:29.801Z,14.13
2023-04-09T19:59:01.125Z,14.20
2023-04-09T20:01:33.466Z,14.75
2023-04-09T20:04:04.911Z,13.15
2023-04-09T20:06:37.274Z,12.88
2023-04-09T20:09:13.050Z,13.88
2023-04-09T20:11:44.021Z,13.25
2023-04-09T20:14:12.710Z,14.18
2023-04-09T20:16:41.177Z,13.40
2023-04-09T20:19:10.071Z,13.88
2023-04-09T20:21:38.499Z,13.73
2023-04-09T20:24:08.279Z,12.23
2023-04-09T20:26:36.816Z,12.90
2023-04-09T20:29:07.525Z,13.27
2023-04-09T20:31:36.662Z,14.15
2023-04-09T20:34:05.582Z,12.57
2023-04-09T20:36:37.593Z,12.68
2023-04-09T20:39:06.408Z,13.68
2023-04-09T20:41:34.844Z,12.45
2023-04-09T20:44:03.397Z,12.65
2023-04-09T20:46:33.312Z,11.55
2023-04-09T20:49:04.001Z,12.05
2023-04-09T20:51:32.631Z,11.90
2023-04-09T20:54:02.277Z,12.18
2023-04-09T20:56:30.996Z,12.23
2023-04-09T20:58:59.678Z,12.63
2023-04-09T21:01:28.820Z,11.23
2023-04-09T21:03:58.849Z,11.48
2023-04-09T21:06:27.442Z,11.50
2023-04-09T21:08:58.652Z,12.32
2023-04-09T21:11:28.299Z,11.70
2023-04-09T21:13:58.079Z,11.10
2023-04-09T21:16:28.671Z,11.70
2023-04-09T21:18:58.560Z,12.25
2023-04-09T21:21:28.494Z,11.52
2023-04-09T21:23:58.571Z,11.40
2023-04-09T21:26:28.120Z,10.27
2023-04-09T21:29:02.810Z,12.00
2023-04-09T21:31:32.347Z,10.98
2023-04-09T21:34:02.155Z,11.43
2023-04-09T21:36:35.569Z,12.38
2023-04-09T21:39:07.109Z,11.05
2023-04-09T21:41:35.811Z,11.77
2023-04-09T21:44:08.584Z,11.27
2023-04-09T21:46:37.721Z,11.75
2023-04-09T21:49:08.202Z,11.23
2023-04-09T21:51:37.566Z,11.13
2023-04-09T21:54:06.932Z,10.98
2023-04-09T21:56:36.010Z,11.02
2023-04-09T21:59:05.340Z,11.02
2023-04-09T22:01:35.450Z,10.15
2023-04-09T22:04:04.421Z,11.05
2023-04-09T22:06:36.389Z,10.88
2023-04-09T22:09:08.050Z,10.73
2023-04-09T22:11:41.379Z,10.25
2023-04-09T22:14:09.744Z,11.55
2023-04-09T22:16:40.818Z,11.07
2023-04-09T22:19:09.338Z,10.60
2023-04-09T22:21:39.641Z,11.48
2023-04-09T22:24:11.851Z,11.27
2023-04-09T22:26:42.757Z,10.57
2023-04-09T22:29:11.145Z,11.10
2023-04-09T22:31:40.084Z,10.77
2023-04-09T22:34:20.930Z,11.38
2023-04-09T22:36:52.121Z,11.25
2023-04-09T22:39:21.617Z,11.35
2023-04-09T22:41:50.290Z,10.88
2023-04-09T22:44:18.886Z,10.68
2023-04-09T22:46:47.587Z,10.45
2023-04-09T22:49:15.994Z,10.27
2023-04-09T22:51:44.686Z,10.73
2023-04-09T22:54:14.728Z,10.23
2023-04-09T22:56:43.217Z,10.63
2023-04-09T22:59:11.797Z,10.55
2023-04-09T23:01:40.832Z,10.40
2023-04-09T23:04:09.464Z,10.32
2023-04-09T23:06:38.317Z,10.88
2023-04-09T23:09:06.762Z,10.80
2023-04-09T23:11:37.780Z,10.50
2023-04-09T23:14:06.525Z,10.45
2023-04-09T23:16:35.187Z,10.30
2023-04-09T23:19:03.886Z,9.68
2023-04-09T23:21:32.517Z,10.55
2023-04-09T23:24:02.017Z,10.65
2023-04-09T23:26:30.472Z,10.20
2023-04-09T23:29:01.064Z,9.63
2023-04-09T23:31:29.721Z,10.35
2023-04-09T23:33:58.268Z,9.93
2023-04-09T23:36:27.061Z,10.50
2023-04-09T23:38:55.413Z,10.70
2023-04-09T23:41:26.187Z,10.65
2023-04-09T23:43:55.345Z,10.00
2023-04-09T23:46:25.690Z,11.02
2023-04-09T23:48:54.174Z,10.85
2023-04-09T23:51:22.816Z,11.13
2023-04-09T23:53:51.680Z,11.02
2023-04-09T23:56:20.375Z,10.93
2023-04-09T23:58:48.863Z,10.68
